createdAt,value
2018-07-27T00:01:02.079Z,23.97
2018-07-27T00:03:29.716Z,24.13
2018-07-27T00:05:57.316Z,25.00
2018-07-27T00:08:25.075Z,25.00
2018-07-27T00:10:52.991Z,26.43
2018-07-27T00:13:20.719Z,25.60
2018-07-27T00:15:48.458Z,25.70
2018-07-27T00:18:16.898Z,24.80
2018-07-27T00:20:45.160Z,26.60
2018-07-27T00:23:13.449Z,26.87
2018-07-27T00:25:44.452Z,23.77
2018-07-27T00:28:13.856Z,26.83
2018-07-27T00:30:41.648Z,24.53
2018-07-27T00:33:09.244Z,24.20
2018-07-27T00:35:38.290Z,23.17
2018-07-27T00:38:06.235Z,23.80
2018-07-27T00:40:33.966Z,24.63
2018-07-27T00:43:01.838Z,26.00
2018-07-27T00:45:29.423Z,27.60
2018-07-27T00:47:57.117Z,27.97
2018-07-27T00:50:24.819Z,29.67
2018-07-27T00:52:52.709Z,27.60
2018-07-27T00:55:20.678Z,27.40
2018-07-27T00:57:49.535Z,27.33
2018-07-27T01:00:17.407Z,26.30
2018-07-27T01:02:45.015Z,31.17
2018-07-27T01:05:12.864Z,30.77
2018-07-27T01:07:40.556Z,31.70
2018-07-27T01:10:08.731Z,29.30
2018-07-27T01:12:36.582Z,31.77
2018-07-27T01:15:04.707Z,31.67
2018-07-27T01:17:43.606Z,30.90
2018-07-27T01:20:11.408Z,33.00
2018-07-27T01:22:39.153Z,34.83
2018-07-27T01:25:06.874Z,31.47
2018-07-27T01:27:34.615Z,30.30
2018-07-27T01:30:02.876Z,31.60
2018-07-27T01:32:31.881Z,30.97
2018-07-27T01:34:59.514Z,28.03
2018-07-27T01:37:27.272Z,28.50
2018-07-27T01:39:54.849Z,28.00
2018-07-27T01:42:22.542Z,25.77
2018-07-27T01:44:50.297Z,26.00
2018-07-27T01:47:18.119Z,25.80
2018-07-27T01:49:46.112Z,23.07
2018-07-27T01:52:13.902Z,26.70
2018-07-27T01:54:41.757Z,25.90
2018-07-27T01:57:09.482Z,23.87
2018-07-27T01:59:37.485Z,26.23
2018-07-27T02:02:05.339Z,23.37
2018-07-27T02:04:33.197Z,20.80
2018-07-27T02:07:00.922Z,21.20
2018-07-27T02:09:29.093Z,21.03
2018-07-27T02:11:57.157Z,22.17
2018-07-27T02:14:24.897Z,24.23
2018-07-27T02:16:52.828Z,22.40
2018-07-27T02:19:20.860Z,21.67
2018-07-27T02:21:48.424Z,22.73
2018-07-27T02:24:16.499Z,22.63
2018-07-27T02:26:44.909Z,22.30
2018-07-27T02:29:16.376Z,21.70
2018-07-27T02:31:45.453Z,21.60
2018-07-27T02:34:13.296Z,23.33
2018-07-27T02:36:40.968Z,20.33
2018-07-27T02:39:09.844Z,21.50
2018-07-27T02:41:37.638Z,21.30
2018-07-27T02:44:05.848Z,21.23
2018-07-27T02:46:33.628Z,19.73
2018-07-27T02:49:01.309Z,20.37
2018-07-27T02:51:29.143Z,19.87
2018-07-27T02:53:57.021Z,19.80
2018-07-27T02:56:25.565Z,19.53
2018-07-27T02:58:53.319Z,21.00
2018-07-27T03:01:21.193Z,18.10
2018-07-27T03:03:49.344Z,18.40
2018-07-27T03:06:17.380Z,19.23
2018-07-27T03:08:44.967Z,19.67
2018-07-27T03:11:12.929Z,19.70
2018-07-27T03:13:42.126Z,18.23
2018-07-27T03:16:09.894Z,18.20
2018-07-27T03:18:37.973Z,17.20
2018-07-27T03:21:07.192Z,17.60
2018-07-27T03:23:35.747Z,19.70
2018-07-27T03:26:03.528Z,17.27
2018-07-27T03:28:31.306Z,19.13
2018-07-27T03:30:58.987Z,16.43
2018-07-27T03:33:27.655Z,19.70
2018-07-27T03:35:55.298Z,18.63
2018-07-27T03:38:23.208Z,18.20
2018-07-27T03:40:51.992Z,17.00
2018-07-27T03:43:21.462Z,18.97
2018-07-27T03:45:49.741Z,16.50
2018-07-27T03:48:17.418Z,18.93
2018-07-27T03:50:45.186Z,18.20
2018-07-27T03:53:12.914Z,16.40
2018-07-27T03:55:40.714Z,16.40
2018-07-27T03:58:08.684Z,18.43
2018-07-27T04:00:36.853Z,17.50
2018-07-27T04:03:04.622Z,17.27
2018-07-27T04:05:32.541Z,15.00
2018-07-27T04:08:01.266Z,15.20
2018-07-27T04:10:30.417Z,14.77
2018-07-27T04:12:58.808Z,17.83
2018-07-27T04:15:26.802Z,14.30
2018-07-27T04:18:00.440Z,15.80
2018-07-27T04:20:28.635Z,13.60
2018-07-27T04:22:56.401Z,14.10
2018-07-27T04:25:24.438Z,12.67
2018-07-27T04:27:52.709Z,14.10
2018-07-27T04:30:20.616Z,14.07
2018-07-27T04:32:49.305Z,13.40
2018-07-27T04:35:16.872Z,12.70
2018-07-27T04:37:44.673Z,14.07
2018-07-27T04:40:12.440Z,14.47
2018-07-27T04:42:40.106Z,12.97
2018-07-27T04:45:07.860Z,12.87
2018-07-27T04:47:35.609Z,12.37
2018-07-27T04:50:04.016Z,11.50
2018-07-27T04:52:31.961Z,12.93
2018-07-27T04:54:59.731Z,11.70
2018-07-27T04:57:29.152Z,11.07
2018-07-27T04:59:56.819Z,10.30
2018-07-27T05:02:24.919Z,10.87
2018-07-27T05:04:53.541Z,10.10
2018-07-27T05:07:21.184Z,10.00
2018-07-27T05:09:50.052Z,9.13
2018-07-27T05:12:17.849Z,9.33
2018-07-27T05:14:46.118Z,9.23
2018-07-27T05:17:14.525Z,9.40
2018-07-27T05:19:42.391Z,9.00
2018-07-27T05:22:10.003Z,9.40
2018-07-27T05:24:38.184Z,8.70
2018-07-27T05:27:06.119Z,9.20
2018-07-27T05:29:33.791Z,9.40
2018-07-27T05:32:01.500Z,8.97
2018-07-27T05:34:29.382Z,7.90
2018-07-27T05:36:57.206Z,9.20
2018-07-27T05:39:25.065Z,8.40
2018-07-27T05:41:53.001Z,9.20
2018-07-27T05:44:21.285Z,8.53
2018-07-27T05:46:49.283Z,7.80
2018-07-27T05:49:17.348Z,8.33
2018-07-27T05:51:46.258Z,9.00
2018-07-27T05:54:13.973Z,8.47
2018-07-27T05:56:47.890Z,7.70
2018-07-27T05:59:15.531Z,7.53
2018-07-27T06:01:43.535Z,7.33
2018-07-27T06:04:11.409Z,7.67
2018-07-27T06:06:39.073Z,7.10
2018-07-27T06:09:09.746Z,7.17
2018-07-27T06:11:37.555Z,7.73
2018-07-27T06:14:07.335Z,7.50
2018-07-27T06:16:35.248Z,7.60
2018-07-27T06:19:03.146Z,6.57
2018-07-27T06:21:32.093Z,6.80
2018-07-27T06:24:01.085Z,7.33
2018-07-27T06:26:29.718Z,7.23
2018-07-27T06:28:57.623Z,7.20
2018-07-27T06:31:25.436Z,5.90
2018-07-27T06:33:53.985Z,6.60
2018-07-27T06:36:22.727Z,6.70
2018-07-27T06:38:50.664Z,6.60
2018-07-27T06:41:18.646Z,7.67
2018-07-27T06:43:47.238Z,6.97
2018-07-27T06:46:15.589Z,6.60
2018-07-27T06:48:43.191Z,6.33
2018-07-27T06:51:12.004Z,6.30
2018-07-27T06:53:40.513Z,7.40
2018-07-27T06:56:08.895Z,6.40
2018-07-27T06:58:36.971Z,6.20
2018-07-27T07:01:06.275Z,6.60
2018-07-27T07:03:34.529Z,7.10
2018-07-27T07:06:02.164Z,6.13
2018-07-27T07:08:32.666Z,6.27
2018-07-27T07:11:01.305Z,7.17
2018-07-27T07:13:30.880Z,6.20
2018-07-27T07:16:01.611Z,6.27
2018-07-27T07:18:30.449Z,6.10
2018-07-27T07:20:59.451Z,6.60
2018-07-27T07:23:27.111Z,5.50
2018-07-27T07:25:58.674Z,5.50
2018-07-27T07:28:27.461Z,6.00
2018-07-27T07:30:55.192Z,6.53
2018-07-27T07:33:23.755Z,6.77
2018-07-27T07:35:52.053Z,5.57
2018-07-27T07:38:20.633Z,5.37
2018-07-27T07:40:48.619Z,5.73
2018-07-27T07:43:18.218Z,5.30
2018-07-27T07:45:47.736Z,5.70
2018-07-27T07:48:18.767Z,6.47
2018-07-27T07:50:47.961Z,6.03
2018-07-27T07:53:15.750Z,5.87
2018-07-27T07:55:44.078Z,6.80
2018-07-27T07:58:11.949Z,6.10
2018-07-27T08:00:39.839Z,6.30
2018-07-27T08:03:07.833Z,6.10
2018-07-27T08:05:35.630Z,5.70
2018-07-27T08:08:03.243Z,7.00
2018-07-27T08:10:31.017Z,5.20
2018-07-27T08:12:58.880Z,5.37
2018-07-27T08:15:26.730Z,7.20
2018-07-27T08:17:54.430Z,5.60
2018-07-27T08:20:22.139Z,5.27
2018-07-27T08:22:49.893Z,6.40
2018-07-27T08:25:17.543Z,5.30
2018-07-27T08:27:46.367Z,5.50
2018-07-27T08:30:14.429Z,5.07
2018-07-27T08:32:42.345Z,6.53
2018-07-27T08:35:10.184Z,5.47
2018-07-27T08:37:37.820Z,5.50
2018-07-27T08:40:05.746Z,5.67
2018-07-27T08:42:33.561Z,5.63
2018-07-27T08:45:02.803Z,4.80
2018-07-27T08:47:30.664Z,5.03
2018-07-27T08:49:58.976Z,4.80
2018-07-27T08:52:27.559Z,4.50
2018-07-27T08:54:56.098Z,4.73
2018-07-27T08:57:23.935Z,4.80
2018-07-27T08:59:51.911Z,5.17
2018-07-27T09:02:19.696Z,4.40
2018-07-27T09:04:47.255Z,4.50
2018-07-27T09:07:14.939Z,5.50
2018-07-27T09:09:42.591Z,4.70
2018-07-27T09:12:10.309Z,4.03
2018-07-27T09:14:37.900Z,4.37
2018-07-27T09:17:05.553Z,4.20
2018-07-27T09:19:33.121Z,4.10
2018-07-27T09:22:00.673Z,3.80
2018-07-27T09:24:28.432Z,3.53
2018-07-27T09:26:56.027Z,4.60
2018-07-27T09:29:23.596Z,4.90
2018-07-27T09:31:51.261Z,4.87
2018-07-27T09:34:19.084Z,3.97
2018-07-27T09:36:47.149Z,3.70
2018-07-27T09:39:15.218Z,4.40
2018-07-27T09:41:42.791Z,4.90
2018-07-27T09:44:10.565Z,3.90
2018-07-27T09:46:38.250Z,4.23
2018-07-27T09:49:07.494Z,3.90
2018-07-27T09:51:35.123Z,3.70
2018-07-27T09:54:03.099Z,4.90
2018-07-27T09:56:31.161Z,4.00
2018-07-27T09:58:59.104Z,4.37
2018-07-27T10:01:28.198Z,4.40
2018-07-27T10:03:56.031Z,3.60
2018-07-27T10:06:23.763Z,3.83
2018-07-27T10:08:51.523Z,3.07
2018-07-27T10:11:19.959Z,3.17
2018-07-27T10:13:48.015Z,3.57
2018-07-27T10:16:15.938Z,3.43
2018-07-27T10:18:44.193Z,3.90
2018-07-27T10:21:11.937Z,3.87
2018-07-27T10:23:39.825Z,4.07
2018-07-27T10:26:09.286Z,4.00
2018-07-27T10:28:37.673Z,3.27
2018-07-27T10:31:05.465Z,3.60
2018-07-27T10:33:34.220Z,3.97
2018-07-27T10:36:02.529Z,3.13
2018-07-27T10:38:30.467Z,2.97
2018-07-27T10:40:58.314Z,3.37
2018-07-27T10:45:53.190Z,3.00
2018-07-27T10:48:21.059Z,3.50
2018-07-27T10:58:10.036Z,3.67
2018-07-27T11:00:37.694Z,2.80
2018-07-27T11:03:05.462Z,3.00
2018-07-27T11:05:33.241Z,3.67
2018-07-27T11:08:00.957Z,3.47
2018-07-27T11:15:23.373Z,3.50
2018-07-27T11:17:51.250Z,3.63
2018-07-27T11:20:18.907Z,3.43
2018-07-27T11:22:46.888Z,3.30
2018-07-27T11:25:14.623Z,3.27
2018-07-27T11:35:03.660Z,3.30
2018-07-27T11:57:09.014Z,4.03
2018-07-27T11:59:36.722Z,3.77
2018-07-27T12:09:26.050Z,3.67
2018-07-27T12:11:53.892Z,3.70
2018-07-27T12:14:21.821Z,3.83
2018-07-27T12:16:49.853Z,3.60
2018-07-27T12:19:18.115Z,2.93
2018-07-27T12:21:46.127Z,3.53
2018-07-27T12:24:13.646Z,3.43
2018-07-27T12:26:41.306Z,3.40
2018-07-27T12:29:10.732Z,3.03
2018-07-27T12:31:39.159Z,3.37
2018-07-27T12:34:06.914Z,3.63
2018-07-27T12:36:34.995Z,3.20
2018-07-27T12:39:03.666Z,3.00
2018-07-27T12:41:35.554Z,2.93
2018-07-27T12:44:03.317Z,2.90
2018-07-27T12:46:33.217Z,2.90
2018-07-27T12:49:01.171Z,3.27
2018-07-27T12:51:29.255Z,3.00
2018-07-27T12:53:57.200Z,2.50
2018-07-27T12:56:25.192Z,2.80
2018-07-27T12:58:52.935Z,2.37
2018-07-27T13:01:20.680Z,2.63
2018-07-27T13:03:48.491Z,2.60
2018-07-27T13:06:16.133Z,2.70
2018-07-27T13:08:43.806Z,2.47
2018-07-27T13:11:11.640Z,2.63
2018-07-27T13:13:39.682Z,2.90
2018-07-27T13:16:07.601Z,2.90
2018-07-27T13:18:35.256Z,3.00
2018-07-27T13:21:03.233Z,2.67
2018-07-27T13:23:32.218Z,2.90
2018-07-27T13:28:32.897Z,3.37
2018-07-27T13:31:00.671Z,3.67
2018-07-27T13:33:29.255Z,3.20
2018-07-27T13:35:59.147Z,3.67
2018-07-27T13:38:26.999Z,4.30
2018-07-27T13:40:54.979Z,3.40
2018-07-27T13:43:22.710Z,3.47
2018-07-27T13:45:50.697Z,3.70
2018-07-27T13:48:19.244Z,4.20
2018-07-27T13:50:47.035Z,4.23
2018-07-27T13:53:14.987Z,4.17
2018-07-27T13:55:42.929Z,3.67
2018-07-27T13:58:10.724Z,4.17
2018-07-27T14:00:39.565Z,3.63
2018-07-27T14:03:07.392Z,3.70
2018-07-27T14:05:35.093Z,3.70
2018-07-27T14:08:02.869Z,4.33
2018-07-27T14:10:30.817Z,3.80
2018-07-27T14:12:58.850Z,4.43
2018-07-27T14:15:26.648Z,3.60
2018-07-27T14:17:54.423Z,4.00
2018-07-27T14:20:22.176Z,4.33
2018-07-27T14:22:49.833Z,4.40
2018-07-27T14:25:17.798Z,3.50
2018-07-27T14:27:45.569Z,3.40
2018-07-27T14:30:13.228Z,3.57
2018-07-27T14:32:42.478Z,3.77
2018-07-27T14:35:10.360Z,3.60
2018-07-27T14:37:38.110Z,3.90
2018-07-27T14:40:05.879Z,4.10
2018-07-27T14:42:33.977Z,3.50
2018-07-27T14:45:01.983Z,3.83
2018-07-27T14:47:30.297Z,3.30
2018-07-27T14:49:58.160Z,4.20
2018-07-27T14:52:26.205Z,3.80
2018-07-27T14:54:53.925Z,3.90
2018-07-27T14:57:21.690Z,3.43
2018-07-27T14:59:49.569Z,3.80
2018-07-27T15:02:17.442Z,4.00
2018-07-27T15:04:45.259Z,5.20
2018-07-27T15:07:13.026Z,4.50
2018-07-27T15:09:40.972Z,4.20
2018-07-27T15:12:08.776Z,4.30
2018-07-27T15:14:39.986Z,4.43
2018-07-27T15:17:08.861Z,4.00
2018-07-27T15:19:37.084Z,5.27
2018-07-27T15:22:05.119Z,4.37
2018-07-27T15:24:33.040Z,4.17
2018-07-27T15:27:01.119Z,4.20
2018-07-27T15:29:29.236Z,4.47
2018-07-27T15:31:59.890Z,5.00
2018-07-27T15:34:27.820Z,4.00
2018-07-27T15:36:55.883Z,4.27
2018-07-27T15:39:24.758Z,4.47
2018-07-27T15:41:52.698Z,4.87
2018-07-27T15:44:20.513Z,3.80
2018-07-27T15:46:48.702Z,4.10
2018-07-27T15:49:16.831Z,3.83
2018-07-27T15:51:44.824Z,3.73
2018-07-27T15:54:12.831Z,4.10
2018-07-27T15:56:40.944Z,3.80
2018-07-27T15:59:09.061Z,3.90
2018-07-27T16:01:37.342Z,4.37
2018-07-27T16:04:05.280Z,3.50
2018-07-27T16:06:33.195Z,4.27
2018-07-27T16:09:01.130Z,3.57
2018-07-27T16:11:29.512Z,3.70
2018-07-27T16:13:57.648Z,3.77
2018-07-27T16:16:25.407Z,4.20
2018-07-27T16:18:53.104Z,4.57
2018-07-27T16:21:20.962Z,4.63
2018-07-27T16:23:50.561Z,4.30
2018-07-27T16:26:18.355Z,4.70
2018-07-27T16:28:46.642Z,4.43
2018-07-27T16:31:14.304Z,4.40
2018-07-27T16:33:42.014Z,4.20
2018-07-27T16:36:09.985Z,4.37
2018-07-27T16:38:38.245Z,4.60
2018-07-27T16:41:06.552Z,4.73
2018-07-27T16:43:34.381Z,4.33
2018-07-27T16:46:02.163Z,4.80
2018-07-27T16:48:29.955Z,4.93
2018-07-27T16:50:57.809Z,5.30
2018-07-27T16:53:25.494Z,4.87
2018-07-27T16:55:53.427Z,4.97
2018-07-27T16:58:21.210Z,4.33
2018-07-27T17:00:49.038Z,4.63
2018-07-27T17:03:17.081Z,5.43
2018-07-27T17:05:44.961Z,5.47
2018-07-27T17:08:13.060Z,5.43
2018-07-27T17:10:41.029Z,4.40
2018-07-27T17:13:08.862Z,4.70
2018-07-27T17:15:36.866Z,4.63
2018-07-27T17:18:04.532Z,5.07
2018-07-27T17:20:32.327Z,5.20
2018-07-27T17:23:00.085Z,4.80
2018-07-27T17:25:27.861Z,4.87
2018-07-27T17:27:55.740Z,4.90
2018-07-27T17:30:23.444Z,4.50
2018-07-27T17:32:51.917Z,5.03
2018-07-27T17:35:19.719Z,5.33
2018-07-27T17:37:47.389Z,5.33
2018-07-27T17:40:15.259Z,4.83
2018-07-27T17:45:10.204Z,5.00
2018-07-27T17:47:38.164Z,4.97
2018-07-27T17:50:06.468Z,4.70
2018-07-27T18:29:44.842Z,5.30
2018-07-27T18:32:12.812Z,5.77
2018-07-27T18:34:40.650Z,5.23
2018-07-27T18:37:08.593Z,5.87
2018-07-27T18:39:36.472Z,6.47
2018-07-27T18:42:04.700Z,6.73
2018-07-27T19:04:23.731Z,6.20
2018-07-27T19:06:51.735Z,6.07
2018-07-27T19:09:20.108Z,6.17
2018-07-27T19:11:47.720Z,6.10
2018-07-27T19:14:15.535Z,6.87
2018-07-27T19:16:43.289Z,6.17
2018-07-27T19:19:11.195Z,6.10
2018-07-27T19:21:39.702Z,6.80
2018-07-27T19:24:08.139Z,6.40
2018-07-27T19:26:35.980Z,6.00
2018-07-27T19:29:03.821Z,5.93
2018-07-27T19:31:31.496Z,6.00
2018-07-27T19:33:59.181Z,6.17
2018-07-27T19:36:28.022Z,6.70
2018-07-27T19:38:57.454Z,6.50
2018-07-27T19:41:28.219Z,6.10
2018-07-27T19:43:57.253Z,5.90
2018-07-27T19:46:33.230Z,7.27
2018-07-27T19:49:01.829Z,7.30
2018-07-27T19:51:29.707Z,6.17
2018-07-27T19:53:58.868Z,6.30
2018-07-27T19:56:27.787Z,6.83
2018-07-27T19:58:56.006Z,6.67
2018-07-27T20:01:24.250Z,6.50
2018-07-27T20:03:56.864Z,6.63
2018-07-27T20:06:25.917Z,7.47
2018-07-27T20:08:55.817Z,6.60
2018-07-27T20:11:25.010Z,6.30
2018-07-27T20:13:52.793Z,7.07
2018-07-27T20:16:20.550Z,6.73
2018-07-27T20:18:48.430Z,7.20
2018-07-27T20:21:16.128Z,6.60
2018-07-27T20:23:43.828Z,7.03
2018-07-27T20:26:11.812Z,6.80
2018-07-27T20:28:40.490Z,5.73
2018-07-27T20:31:08.307Z,6.73
2018-07-27T20:33:36.059Z,6.70
2018-07-27T20:36:03.780Z,6.63
2018-07-27T20:38:31.456Z,7.00
2018-07-27T20:40:59.120Z,6.87
2018-07-27T20:43:26.690Z,6.83
2018-07-27T20:45:54.457Z,7.67
2018-07-27T20:48:22.583Z,7.53
2018-07-27T20:50:51.017Z,7.70
2018-07-27T20:53:18.701Z,7.47
2018-07-27T20:55:46.295Z,7.50
2018-07-27T20:58:13.884Z,8.13
2018-07-27T21:00:41.578Z,7.80
2018-07-27T21:03:09.402Z,7.33
2018-07-27T21:05:37.098Z,8.10
2018-07-27T21:08:04.865Z,7.87
2018-07-27T21:10:32.689Z,8.33
2018-07-27T21:13:00.498Z,8.20
2018-07-27T21:15:28.205Z,8.50
2018-07-27T21:17:55.802Z,8.43
2018-07-27T21:20:23.890Z,7.80
2018-07-27T21:22:51.710Z,8.13
2018-07-27T21:25:19.710Z,9.37
2018-07-27T21:27:47.539Z,8.63
2018-07-27T21:30:15.629Z,8.50
2018-07-27T21:32:43.513Z,10.20
2018-07-27T21:35:11.320Z,8.73
2018-07-27T21:37:39.143Z,9.27
2018-07-27T21:40:06.809Z,9.10
2018-07-27T21:42:34.778Z,9.10
2018-07-27T21:45:02.620Z,8.50
2018-07-27T21:47:30.437Z,9.83
2018-07-27T21:49:58.526Z,9.10
2018-07-27T21:52:26.354Z,9.00
2018-07-27T21:54:54.279Z,10.30
2018-07-27T21:57:22.980Z,9.40
2018-07-27T21:59:50.644Z,9.97
2018-07-27T22:02:18.507Z,10.30
2018-07-27T22:04:46.084Z,9.50
2018-07-27T22:07:13.841Z,9.53
2018-07-27T22:09:41.579Z,9.93
2018-07-27T22:12:09.317Z,9.53
2018-07-27T22:14:37.020Z,10.03
2018-07-27T22:17:04.774Z,8.50
2018-07-27T22:19:32.492Z,9.23
2018-07-27T22:22:00.364Z,9.80
2018-07-27T22:24:28.017Z,9.50
2018-07-27T22:26:55.799Z,9.63
2018-07-27T22:29:23.412Z,9.37
2018-07-27T22:31:51.214Z,9.53
2018-07-27T22:34:19.018Z,9.77
2018-07-27T22:36:46.734Z,9.63
2018-07-27T22:39:14.676Z,9.40
2018-07-27T22:41:42.420Z,9.00
2018-07-27T22:44:10.179Z,10.80
2018-07-27T22:46:37.942Z,9.80
2018-07-27T22:49:05.701Z,10.23
2018-07-27T22:51:33.498Z,10.53
2018-07-27T22:54:01.213Z,10.23
2018-07-27T22:56:28.872Z,9.60
2018-07-27T22:58:56.647Z,9.60
2018-07-27T23:01:24.415Z,10.20
2018-07-27T23:03:52.292Z,10.60
2018-07-27T23:06:19.917Z,9.27
2018-07-27T23:08:47.647Z,9.60
2018-07-27T23:11:15.388Z,9.80
2018-07-27T23:13:43.171Z,10.20
2018-07-27T23:16:11.130Z,10.17
2018-07-27T23:18:38.874Z,9.60
2018-07-27T23:21:06.498Z,9.93
2018-07-27T23:23:34.234Z,9.60
2018-07-27T23:26:02.018Z,10.63
2018-07-27T23:28:29.781Z,10.03
2018-07-27T23:30:57.752Z,9.33
2018-07-27T23:33:26.265Z,9.67
2018-07-27T23:35:54.044Z,10.33
2018-07-27T23:38:21.883Z,10.30
2018-07-27T23:40:49.615Z,10.50
2018-07-27T23:43:17.238Z,9.77
2018-07-27T23:45:45.018Z,9.70
2018-07-27T23:48:12.759Z,10.80
2018-07-27T23:50:40.824Z,10.33
2018-07-27T23:53:08.963Z,10.33
2018-07-27T23:55:36.698Z,11.10
2018-07-27T23:58:04.438Z,11.10
